CMA CGM Musca — 2CAC8 — position and weather

sailwx.info

Track history (hours):
 
Tides and Currents Weather Stations Pressure Air Temp Water Temp Dewpoint Dewpoint Depression Visibility Wind Speed Wind Dir Waves Ship Positions

CMA CGM Musca

Last reported at 2014-Sep-02 18:33 UTC. Time now 2014-Sep-02 19:19 UTC.
Position N 50°57' E 001°21'.

Length 347 m; draft 13.7 m.

Type: Ship (hazmat cat A). MMSI: 235070914.

Date/timePositionNaut miles runAvg speedWind from/ knotsBaromVisibWave heightAir tempDewpointWater temp
2014-Sep-02 18:33N 50°57' E 001°21'1919.2
2014-Sep-02 17:34N 51°11' E 001°41'1818.4
2014-Sep-02 16:34N 51°25' E 002°01'1818.3
2014-Sep-02 15:33N 51°22' E 002°30'1514.8
2014-Sep-02 14:34N 51°25' E 002°54'1212.5
2014-Sep-02 13:33N 51°21' E 003°12'1 0.7
2014-Sep-02 12:33N 51°20' E 003°12'0 0.0
2014-Sep-02 11:33N 51°20' E 003°12'0 0.0
2014-Sep-02 10:33N 51°20' E 003°12'0 0.0
2014-Sep-02 09:32N 51°20' E 003°12'0 0.0
2014-Sep-02 08:32N 51°20' E 003°12'0 0.0
2014-Sep-02 07:31N 51°20' E 003°12'0 0.0
2014-Sep-02 06:31N 51°20' E 003°12'0 0.0
2014-Sep-02 05:33N 51°20' E 003°12'0 0.0
2014-Sep-02 04:30N 51°20' E 003°12'0 0.0
2014-Sep-02 03:33N 51°20' E 003°12'0 0.3
2014-Sep-02 02:34N 51°20' E 003°12'5 5.2
2014-Sep-02 01:34N 51°24' E 003°06'7 7.0
2014-Sep-02 00:33N 51°31' E 003°05'1311.8
2014-Sep-01 23:27N 51°43' E 003°12'1112.0
2014-Sep-01 22:33N 51°53' E 003°17'1110.6
2014-Sep-01 21:34N 52°03' E 003°25'1110.7
2014-Sep-01 20:34N 52°03' E 003°42'9 9.2
2014-Sep-01 19:34N 52°02' E 003°57'6 6.1
2014-Sep-01 18:31N 51°57' E 004°04'0 0.0
2014-Sep-01 17:31N 51°57' E 004°04'0 0.0
2014-Sep-01 16:33N 51°57' E 004°04'0 0.0
2014-Sep-01 15:30N 51°57' E 004°04'0 0.0
2014-Sep-01 14:23N 51°57' E 004°04'0 0.0
2014-Sep-01 13:29N 51°57' E 004°04'0 0.0
2014-Sep-01 12:28N 51°57' E 004°04'0 0.0
2014-Sep-01 11:31N 51°57' E 004°04'0 0.0
2014-Sep-01 10:31N 51°57' E 004°04'0 0.0
2014-Sep-01 09:24N 51°57' E 004°04'0 0.0
2014-Sep-01 08:33N 51°57' E 004°04'0 0.0
2014-Sep-01 07:32N 51°57' E 004°04'0 0.0
2014-Sep-01 06:29N 51°57' E 004°04'0 0.0
2014-Sep-01 05:31N 51°57' E 004°04'0 0.0
2014-Sep-01 04:28N 51°57' E 004°04'0 0.0
2014-Sep-01 03:33N 51°57' E 004°04'0 0.0
2014-Sep-01 02:33N 51°57' E 004°04'0 0.0
2014-Sep-01 01:33N 51°57' E 004°04'0 0.0
2014-Sep-01 00:32N 51°57' E 004°04'0 0.0
2014-Aug-31 23:32N 51°57' E 004°04'0 0.0
2014-Aug-31 22:31N 51°57' E 004°04'0 0.0
2014-Aug-31 21:28N 51°57' E 004°04'0 0.0
2014-Aug-31 20:30N 51°57' E 004°04'0 0.0
2014-Aug-31 19:33N 51°57' E 004°04'0 0.0
2014-Aug-31 18:33N 51°57' E 004°04'0 0.0
2014-Aug-31 17:31N 51°57' E 004°04'0 0.0
2014-Aug-31 16:32N 51°57' E 004°04'0 0.0
2014-Aug-31 15:34N 51°57' E 004°04'2 1.5
2014-Aug-31 14:34N 51°58' E 004°05'8 8.1
2014-Aug-31 13:33N 52°00' E 003°53'6 5.9
2014-Aug-31 12:33N 52°05' E 003°46'6 6.2
2014-Aug-31 11:33N 52°11' E 003°46'6 6.0
2014-Aug-31 10:34N 52°15' E 003°38'3 3.4
2014-Aug-31 09:34N 52°17' E 003°43'8 7.7
2014-Aug-31 08:33N 52°24' E 003°49'1918.8
2014-Aug-31 07:33N 52°42' E 003°54'2418.3
2014-Aug-31 06:14N 53°04' E 004°12'1719.1
2014-Aug-31 05:19N 53°18' E 004°30'1520.2
2014-Aug-31 04:33N 53°30' E 004°45'2121.4
2014-Aug-31 03:33N 53°38' E 005°18'2121.1
2014-Aug-31 02:33N 53°44' E 005°52'6019.8
2014-Aug-30 23:33N 53°58' E 007°31'1414.3
2014-Aug-30 22:33N 53°52' E 007°52'1211.8
2014-Aug-30 21:34N 53°47' E 008°10'1514.8
2014-Aug-30 20:34N 53°37' E 008°29'3 2.6
2014-Aug-30 19:26N 53°35' E 008°32'0 0.0
2014-Aug-30 18:32N 53°35' E 008°32'0 0.0
2014-Aug-30 17:28N 53°35' E 008°32'0 0.0
2014-Aug-30 16:31N 53°35' E 008°32'0 0.0
2014-Aug-30 15:31N 53°35' E 008°32'0 0.0
2014-Aug-30 14:30N 53°35' E 008°32'0 0.0
2014-Aug-30 13:33N 53°35' E 008°32'0 0.0
2014-Aug-30 12:29N 53°35' E 008°32'0 0.0
2014-Aug-30 11:29N 53°35' E 008°32'0 0.0
2014-Aug-30 10:31N 53°35' E 008°32'0 0.0
2014-Aug-30 09:31N 53°35' E 008°32'0 0.0
2014-Aug-30 08:33N 53°35' E 008°32'0 0.0
2014-Aug-30 07:30N 53°35' E 008°32'0 0.0
2014-Aug-30 06:30N 53°35' E 008°32'0 0.0
2014-Aug-30 05:32N 53°35' E 008°32'0 0.0
2014-Aug-30 04:32N 53°35' E 008°32'0 0.0
2014-Aug-30 03:31N 53°35' E 008°32'0 0.0
2014-Aug-30 02:31N 53°35' E 008°32'0 0.0
2014-Aug-30 01:34N 53°35' E 008°32'0 0.0
2014-Aug-30 00:33N 53°35' E 008°32'0 0.0
2014-Aug-29 23:33N 53°35' E 008°32'0 0.0
2014-Aug-29 22:32N 53°35' E 008°32'0 0.0
2014-Aug-29 21:32N 53°35' E 008°32'0 0.0
2014-Aug-29 20:31N 53°35' E 008°32'0 0.1
2014-Aug-29 19:33N 53°35' E 008°32'9 9.3
2014-Aug-29 18:34N 53°41' E 008°21'1515.2
2014-Aug-29 17:33N 53°51' E 008°01'9 8.6
2014-Aug-29 16:34N 53°60' E 008°00'1615.9
2014-Aug-29 15:33N 53°59' E 008°27'1413.7
2014-Aug-29 14:33N 53°51' E 008°46'1212.4
2014-Aug-29 13:33N 53°53' E 009°07'8 8.1
2014-Aug-29 12:33N 53°51' E 009°20'1010.2
2014-Aug-29 11:33N 53°42' E 009°30'1110.7
2014-Aug-29 10:33N 53°34' E 009°42'8 7.9
2014-Aug-29 09:33N 53°32' E 009°55'0 0.4
2014-Aug-29 08:31N 53°32' E 009°55'0 0.0
2014-Aug-29 07:31N 53°32' E 009°55'0 0.0
2014-Aug-29 06:34N 53°32' E 009°55'0 0.0
2014-Aug-29 05:33N 53°32' E 009°55'0 0.0
2014-Aug-29 04:33N 53°32' E 009°55'0 0.0
2014-Aug-29 03:32N 53°32' E 009°55'0 0.0
2014-Aug-29 02:32N 53°32' E 009°55'0 0.0
2014-Aug-29 01:31N 53°32' E 009°55'0 0.0
2014-Aug-29 00:31N 53°32' E 009°55'0 0.0
2014-Aug-28 23:33N 53°32' E 009°55'0 0.0
2014-Aug-28 22:33N 53°32' E 009°55'0 0.0
2014-Aug-28 21:33N 53°32' E 009°55'0 0.0
2014-Aug-28 20:05N 53°32' E 009°55'0 0.0
2014-Aug-28 19:29N 53°32' E 009°55'0 0.0
2014-Aug-28 18:32N 53°32' E 009°55'0 0.0
2014-Aug-28 17:31N 53°32' E 009°55'0 0.0
2014-Aug-28 16:33N 53°32' E 009°55'0 0.0
2014-Aug-28 15:33N 53°32' E 009°55'0 0.0
2014-Aug-28 14:33N 53°32' E 009°55'0 0.0
2014-Aug-28 13:26N 53°32' E 009°55'0 0.0
2014-Aug-28 12:28N 53°32' E 009°55'0 0.0
2014-Aug-28 11:31N 53°32' E 009°55'0 0.0
2014-Aug-28 10:27N 53°32' E 009°55'0 0.0
2014-Aug-28 09:33N 53°32' E 009°55'0 0.0
2014-Aug-28 08:26N 53°32' E 009°55'0 0.0
2014-Aug-28 07:32N 53°32' E 009°55'0 0.0
2014-Aug-28 06:32N 53°32' E 009°55'0 0.0
2014-Aug-28 05:31N 53°32' E 009°55'0 0.0
2014-Aug-28 04:34N 53°32' E 009°55'0 0.0
2014-Aug-28 03:32N 53°32' E 009°55'0 0.0
2014-Aug-28 02:32N 53°32' E 009°55'0 0.0
2014-Aug-28 01:32N 53°32' E 009°55'0 0.0
2014-Aug-28 00:31N 53°32' E 009°55'0 0.0
2014-Aug-27 23:33N 53°32' E 009°55'0 0.0
2014-Aug-27 22:33N 53°32' E 009°55'0 0.0
2014-Aug-27 21:33N 53°32' E 009°55'0 0.0
2014-Aug-27 20:29N 53°32' E 009°55'0 0.0
2014-Aug-27 19:29N 53°32' E 009°55'0 0.0
2014-Aug-27 18:28N 53°32' E 009°55'0 0.0
2014-Aug-27 17:31N 53°32' E 009°55'1 0.5
2014-Aug-27 16:33N 53°32' E 009°54'5 4.6
2014-Aug-27 15:33N 53°33' E 009°47'1111.1
2014-Aug-27 14:33N 53°39' E 009°31'1312.8
2014-Aug-27 13:33N 53°50' E 009°20'1313.3
2014-Aug-27 12:33N 53°51' E 008°58'1413.7
2014-Aug-27 11:33N 53°57' E 008°37'1515.4
2014-Aug-27 10:33N 53°59' E 008°11'1716.8
2014-Aug-27 09:32N 53°57' E 007°43'3618.2
2014-Aug-27 07:33N 53°49' E 006°43'2020.4
2014-Aug-27 06:33N 53°43' E 006°10'2020.2
2014-Aug-27 05:34N 53°36' E 005°38'2020.2
2014-Aug-27 04:33N 53°31' E 005°05'2020.2
2014-Aug-27 03:33N 53°18' E 004°39'2120.9
2014-Aug-27 02:34N 52°60' E 004°21'2120.7
2014-Aug-27 01:34N 52°42' E 004°04'2120.7
2014-Aug-27 00:33N 52°27' E 003°39'2020.2
2014-Aug-26 23:33N 52°13' E 003°16'3919.3
2014-Aug-26 21:33N 51°44' E 002°34'1818.7
2014-Aug-26 20:33N 51°31' E 002°14'1918.6
2014-Aug-26 19:33N 51°17' E 001°54'1818.2
2014-Aug-26 18:33N 51°03' E 001°36'2219.0
2014-Aug-26 17:23N 50°43' E 001°20'2020.3
2014-Aug-26 16:24N 50°28' E 000°58'1720.2
2014-Aug-26 15:33N 50°17' E 000°37'4019.9
2014-Aug-26 13:33N 49°46' W 000°00'1515.0
2014-Aug-26 12:33N 49°31' W 000°03'9 9.1
2014-Aug-26 11:34N 49°27' E 000°10'0 0.0
2014-Aug-26 10:30N 49°27' E 000°10'0 0.0
2014-Aug-26 09:27N 49°27' E 000°10'0 0.0
2014-Aug-26 08:29N 49°27' E 000°10'0 0.0
2014-Aug-26 07:32N 49°27' E 000°10'0 0.0
2014-Aug-26 06:28N 49°27' E 000°10'0 0.0
2014-Aug-26 05:31N 49°27' E 000°10'0 0.0
2014-Aug-26 04:34N 49°27' E 000°10'0 0.0
2014-Aug-26 03:27N 49°27' E 000°10'0 0.0
2014-Aug-26 02:27N 49°27' E 000°10'0 0.0
2014-Aug-26 01:32N 49°27' E 000°10'0 0.0
2014-Aug-26 00:32N 49°27' E 000°10'0 0.0
2014-Aug-25 23:31N 49°27' E 000°10'0 0.0
2014-Aug-25 22:31N 49°27' E 000°10'0 0.0
2014-Aug-25 21:24N 49°27' E 000°10'0 0.0
2014-Aug-25 20:30N 49°27' E 000°10'0 0.0
2014-Aug-25 19:27N 49°27' E 000°10'0 0.0
2014-Aug-25 18:29N 49°27' E 000°10'0 0.0
2014-Aug-25 17:29N 49°27' E 000°10'0 0.0
2014-Aug-25 16:31N 49°27' E 000°10'0 0.0
2014-Aug-25 15:31N 49°27' E 000°10'0 0.0
2014-Aug-25 14:33N 49°27' E 000°10'0 0.0
2014-Aug-25 13:33N 49°27' E 000°10'0 0.0
2014-Aug-25 12:33N 49°27' E 000°10'1 0.7
2014-Aug-25 11:33N 49°27' E 000°09'9 8.9
2014-Aug-25 10:33N 49°31' W 000°04'1212.0
2014-Aug-25 09:33N 49°35' W 000°21'  
Track history (hours):
 
Tides and Currents Weather Stations Pressure Air Temp Water Temp Dewpoint Dewpoint Depression Visibility Wind Speed Wind Dir Waves Ship Positions

CMA CGM Musca

Last reported at 2014-Sep-02 18:33 UTC. Time now 2014-Sep-02 19:19 UTC.
Position N 50°57' E 001°21'.

Length 347 m; draft 13.7 m.

Type: Ship (hazmat cat A). MMSI: 235070914.

Date/timePositionNaut miles runAvg speedWind from/ knotsBaromVisibWave heightAir tempDewpointWater temp
2014-Sep-02 18:33N 50°57' E 001°21'1919.2
2014-Sep-02 17:34N 51°11' E 001°41'1818.4
2014-Sep-02 16:34N 51°25' E 002°01'1818.3
2014-Sep-02 15:33N 51°22' E 002°30'1514.8
2014-Sep-02 14:34N 51°25' E 002°54'1212.5
2014-Sep-02 13:33N 51°21' E 003°12'1 0.7
2014-Sep-02 12:33N 51°20' E 003°12'0 0.0
2014-Sep-02 11:33N 51°20' E 003°12'0 0.0
2014-Sep-02 10:33N 51°20' E 003°12'0 0.0
2014-Sep-02 09:32N 51°20' E 003°12'0 0.0
2014-Sep-02 08:32N 51°20' E 003°12'0 0.0
2014-Sep-02 07:31N 51°20' E 003°12'0 0.0
2014-Sep-02 06:31N 51°20' E 003°12'0 0.0
2014-Sep-02 05:33N 51°20' E 003°12'0 0.0
2014-Sep-02 04:30N 51°20' E 003°12'0 0.0
2014-Sep-02 03:33N 51°20' E 003°12'0 0.3
2014-Sep-02 02:34N 51°20' E 003°12'5 5.2
2014-Sep-02 01:34N 51°24' E 003°06'7 7.0
2014-Sep-02 00:33N 51°31' E 003°05'1311.8
2014-Sep-01 23:27N 51°43' E 003°12'1112.0
2014-Sep-01 22:33N 51°53' E 003°17'1110.6
2014-Sep-01 21:34N 52°03' E 003°25'1110.7
2014-Sep-01 20:34N 52°03' E 003°42'9 9.2
2014-Sep-01 19:34N 52°02' E 003°57'6 6.1
2014-Sep-01 18:31N 51°57' E 004°04'0 0.0
2014-Sep-01 17:31N 51°57' E 004°04'0 0.0
2014-Sep-01 16:33N 51°57' E 004°04'0 0.0
2014-Sep-01 15:30N 51°57' E 004°04'0 0.0
2014-Sep-01 14:23N 51°57' E 004°04'0 0.0
2014-Sep-01 13:29N 51°57' E 004°04'0 0.0
2014-Sep-01 12:28N 51°57' E 004°04'0 0.0
2014-Sep-01 11:31N 51°57' E 004°04'0 0.0
2014-Sep-01 10:31N 51°57' E 004°04'0 0.0
2014-Sep-01 09:24N 51°57' E 004°04'0 0.0
2014-Sep-01 08:33N 51°57' E 004°04'0 0.0
2014-Sep-01 07:32N 51°57' E 004°04'0 0.0
2014-Sep-01 06:29N 51°57' E 004°04'0 0.0
2014-Sep-01 05:31N 51°57' E 004°04'0 0.0
2014-Sep-01 04:28N 51°57' E 004°04'0 0.0
2014-Sep-01 03:33N 51°57' E 004°04'0 0.0
2014-Sep-01 02:33N 51°57' E 004°04'0 0.0
2014-Sep-01 01:33N 51°57' E 004°04'0 0.0
2014-Sep-01 00:32N 51°57' E 004°04'0 0.0
2014-Aug-31 23:32N 51°57' E 004°04'0 0.0
2014-Aug-31 22:31N 51°57' E 004°04'0 0.0
2014-Aug-31 21:28N 51°57' E 004°04'0 0.0
2014-Aug-31 20:30N 51°57' E 004°04'0 0.0
2014-Aug-31 19:33N 51°57' E 004°04'0 0.0
2014-Aug-31 18:33N 51°57' E 004°04'0 0.0
2014-Aug-31 17:31N 51°57' E 004°04'0 0.0
2014-Aug-31 16:32N 51°57' E 004°04'0 0.0
2014-Aug-31 15:34N 51°57' E 004°04'2 1.5
2014-Aug-31 14:34N 51°58' E 004°05'8 8.1
2014-Aug-31 13:33N 52°00' E 003°53'6 5.9
2014-Aug-31 12:33N 52°05' E 003°46'6 6.2
2014-Aug-31 11:33N 52°11' E 003°46'6 6.0
2014-Aug-31 10:34N 52°15' E 003°38'3 3.4
2014-Aug-31 09:34N 52°17' E 003°43'8 7.7
2014-Aug-31 08:33N 52°24' E 003°49'1918.8
2014-Aug-31 07:33N 52°42' E 003°54'2418.3
2014-Aug-31 06:14N 53°04' E 004°12'1719.1
2014-Aug-31 05:19N 53°18' E 004°30'1520.2
2014-Aug-31 04:33N 53°30' E 004°45'2121.4
2014-Aug-31 03:33N 53°38' E 005°18'2121.1
2014-Aug-31 02:33N 53°44' E 005°52'6019.8
2014-Aug-30 23:33N 53°58' E 007°31'1414.3
2014-Aug-30 22:33N 53°52' E 007°52'1211.8
2014-Aug-30 21:34N 53°47' E 008°10'1514.8
2014-Aug-30 20:34N 53°37' E 008°29'3 2.6
2014-Aug-30 19:26N 53°35' E 008°32'0 0.0
2014-Aug-30 18:32N 53°35' E 008°32'0 0.0
2014-Aug-30 17:28N 53°35' E 008°32'0 0.0
2014-Aug-30 16:31N 53°35' E 008°32'0 0.0
2014-Aug-30 15:31N 53°35' E 008°32'0 0.0
2014-Aug-30 14:30N 53°35' E 008°32'0 0.0
2014-Aug-30 13:33N 53°35' E 008°32'0 0.0
2014-Aug-30 12:29N 53°35' E 008°32'0 0.0
2014-Aug-30 11:29N 53°35' E 008°32'0 0.0
2014-Aug-30 10:31N 53°35' E 008°32'0 0.0
2014-Aug-30 09:31N 53°35' E 008°32'0 0.0
2014-Aug-30 08:33N 53°35' E 008°32'0 0.0
2014-Aug-30 07:30N 53°35' E 008°32'0 0.0
2014-Aug-30 06:30N 53°35' E 008°32'0 0.0
2014-Aug-30 05:32N 53°35' E 008°32'0 0.0
2014-Aug-30 04:32N 53°35' E 008°32'0 0.0
2014-Aug-30 03:31N 53°35' E 008°32'0 0.0
2014-Aug-30 02:31N 53°35' E 008°32'0 0.0
2014-Aug-30 01:34N 53°35' E 008°32'0 0.0
2014-Aug-30 00:33N 53°35' E 008°32'0 0.0
2014-Aug-29 23:33N 53°35' E 008°32'0 0.0
2014-Aug-29 22:32N 53°35' E 008°32'0 0.0
2014-Aug-29 21:32N 53°35' E 008°32'0 0.0
2014-Aug-29 20:31N 53°35' E 008°32'0 0.1
2014-Aug-29 19:33N 53°35' E 008°32'9 9.3
2014-Aug-29 18:34N 53°41' E 008°21'1515.2
2014-Aug-29 17:33N 53°51' E 008°01'9 8.6
2014-Aug-29 16:34N 53°60' E 008°00'1615.9
2014-Aug-29 15:33N 53°59' E 008°27'1413.7
2014-Aug-29 14:33N 53°51' E 008°46'1212.4
2014-Aug-29 13:33N 53°53' E 009°07'8 8.1
2014-Aug-29 12:33N 53°51' E 009°20'1010.2
2014-Aug-29 11:33N 53°42' E 009°30'1110.7
2014-Aug-29 10:33N 53°34' E 009°42'8 7.9
2014-Aug-29 09:33N 53°32' E 009°55'0 0.4
2014-Aug-29 08:31N 53°32' E 009°55'0 0.0
2014-Aug-29 07:31N 53°32' E 009°55'0 0.0
2014-Aug-29 06:34N 53°32' E 009°55'0 0.0
2014-Aug-29 05:33N 53°32' E 009°55'0 0.0
2014-Aug-29 04:33N 53°32' E 009°55'0 0.0
2014-Aug-29 03:32N 53°32' E 009°55'0 0.0
2014-Aug-29 02:32N 53°32' E 009°55'0 0.0
2014-Aug-29 01:31N 53°32' E 009°55'0 0.0
2014-Aug-29 00:31N 53°32' E 009°55'0 0.0
2014-Aug-28 23:33N 53°32' E 009°55'0 0.0
2014-Aug-28 22:33N 53°32' E 009°55'0 0.0
2014-Aug-28 21:33N 53°32' E 009°55'0 0.0
2014-Aug-28 20:05N 53°32' E 009°55'0 0.0
2014-Aug-28 19:29N 53°32' E 009°55'0 0.0
2014-Aug-28 18:32N 53°32' E 009°55'0 0.0
2014-Aug-28 17:31N 53°32' E 009°55'0 0.0
2014-Aug-28 16:33N 53°32' E 009°55'0 0.0
2014-Aug-28 15:33N 53°32' E 009°55'0 0.0
2014-Aug-28 14:33N 53°32' E 009°55'0 0.0
2014-Aug-28 13:26N 53°32' E 009°55'0 0.0
2014-Aug-28 12:28N 53°32' E 009°55'0 0.0
2014-Aug-28 11:31N 53°32' E 009°55'0 0.0
2014-Aug-28 10:27N 53°32' E 009°55'0 0.0
2014-Aug-28 09:33N 53°32' E 009°55'0 0.0
2014-Aug-28 08:26N 53°32' E 009°55'0 0.0
2014-Aug-28 07:32N 53°32' E 009°55'0 0.0
2014-Aug-28 06:32N 53°32' E 009°55'0 0.0
2014-Aug-28 05:31N 53°32' E 009°55'0 0.0
2014-Aug-28 04:34N 53°32' E 009°55'0 0.0
2014-Aug-28 03:32N 53°32' E 009°55'0 0.0
2014-Aug-28 02:32N 53°32' E 009°55'0 0.0
2014-Aug-28 01:32N 53°32' E 009°55'0 0.0
2014-Aug-28 00:31N 53°32' E 009°55'0 0.0
2014-Aug-27 23:33N 53°32' E 009°55'0 0.0
2014-Aug-27 22:33N 53°32' E 009°55'0 0.0
2014-Aug-27 21:33N 53°32' E 009°55'0 0.0
2014-Aug-27 20:29N 53°32' E 009°55'0 0.0
2014-Aug-27 19:29N 53°32' E 009°55'0 0.0
2014-Aug-27 18:28N 53°32' E 009°55'0 0.0
2014-Aug-27 17:31N 53°32' E 009°55'1 0.5
2014-Aug-27 16:33N 53°32' E 009°54'5 4.6
2014-Aug-27 15:33N 53°33' E 009°47'1111.1
2014-Aug-27 14:33N 53°39' E 009°31'1312.8
2014-Aug-27 13:33N 53°50' E 009°20'1313.3
2014-Aug-27 12:33N 53°51' E 008°58'1413.7
2014-Aug-27 11:33N 53°57' E 008°37'1515.4
2014-Aug-27 10:33N 53°59' E 008°11'1716.8
2014-Aug-27 09:32N 53°57' E 007°43'3618.2
2014-Aug-27 07:33N 53°49' E 006°43'2020.4
2014-Aug-27 06:33N 53°43' E 006°10'2020.2
2014-Aug-27 05:34N 53°36' E 005°38'2020.2
2014-Aug-27 04:33N 53°31' E 005°05'2020.2
2014-Aug-27 03:33N 53°18' E 004°39'2120.9
2014-Aug-27 02:34N 52°60' E 004°21'2120.7
2014-Aug-27 01:34N 52°42' E 004°04'2120.7
2014-Aug-27 00:33N 52°27' E 003°39'2020.2
2014-Aug-26 23:33N 52°13' E 003°16'3919.3
2014-Aug-26 21:33N 51°44' E 002°34'1818.7
2014-Aug-26 20:33N 51°31' E 002°14'1918.6
2014-Aug-26 19:33N 51°17' E 001°54'1818.2
2014-Aug-26 18:33N 51°03' E 001°36'2219.0
2014-Aug-26 17:23N 50°43' E 001°20'2020.3
2014-Aug-26 16:24N 50°28' E 000°58'1720.2
2014-Aug-26 15:33N 50°17' E 000°37'4019.9
2014-Aug-26 13:33N 49°46' W 000°00'1515.0
2014-Aug-26 12:33N 49°31' W 000°03'9 9.1
2014-Aug-26 11:34N 49°27' E 000°10'0 0.0
2014-Aug-26 10:30N 49°27' E 000°10'0 0.0
2014-Aug-26 09:27N 49°27' E 000°10'0 0.0
2014-Aug-26 08:29N 49°27' E 000°10'0 0.0
2014-Aug-26 07:32N 49°27' E 000°10'0 0.0
2014-Aug-26 06:28N 49°27' E 000°10'0 0.0
2014-Aug-26 05:31N 49°27' E 000°10'0 0.0
2014-Aug-26 04:34N 49°27' E 000°10'0 0.0
2014-Aug-26 03:27N 49°27' E 000°10'0 0.0
2014-Aug-26 02:27N 49°27' E 000°10'0 0.0
2014-Aug-26 01:32N 49°27' E 000°10'0 0.0
2014-Aug-26 00:32N 49°27' E 000°10'0 0.0
2014-Aug-25 23:31N 49°27' E 000°10'0 0.0
2014-Aug-25 22:31N 49°27' E 000°10'0 0.0
2014-Aug-25 21:24N 49°27' E 000°10'0 0.0
2014-Aug-25 20:30N 49°27' E 000°10'0 0.0
2014-Aug-25 19:27N 49°27' E 000°10'0 0.0
2014-Aug-25 18:29N 49°27' E 000°10'0 0.0
2014-Aug-25 17:29N 49°27' E 000°10'0 0.0
2014-Aug-25 16:31N 49°27' E 000°10'0 0.0
2014-Aug-25 15:31N 49°27' E 000°10'0 0.0
2014-Aug-25 14:33N 49°27' E 000°10'0 0.0
2014-Aug-25 13:33N 49°27' E 000°10'0 0.0
2014-Aug-25 12:33N 49°27' E 000°10'1 0.7
2014-Aug-25 11:33N 49°27' E 000°09'9 8.9
2014-Aug-25 10:33N 49°31' W 000°04'1212.0
2014-Aug-25 09:33N 49°35' W 000°21'  

Dump ship's entire track history